Time;durP1;ratioP1;P1;durP2;ratioP2;P2;SDS_P1;SDS_P2;PMS_P1;PMS_P2;Temp;Humidity;BMP_temperature;BMP_pressure;BME280_temperature;BME280_humidity;BME280_pressure;Samples;Min_cycle;Max_cycle;Signal;HPM_P1;HPM_P2
2022/04/24 00:05:22;;;;;;;10.05;6.55;;;;;;;9.06;81.70;99587.02;714068;1174;113812;-79
2022/04/24 00:20:26;;;;;;;9.85;6.05;;;;;;;8.98;81.72;99582.48;714006;1174;114679;-81
2022/04/24 00:35:31;;;;;;;17.27;8.27;;;;;;;9.12;81.16;99578.60;714216;1174;113668;-81
2022/04/24 00:50:35;;;;;;;17.70;8.05;;;;;;;9.15;82.24;99588.77;714456;1173;113809;-81
2022/04/24 01:05:38;;;;;;;14.63;7.93;;;;;;;8.97;81.44;99574.78;714380;1174;113802;-81
2022/04/24 01:20:42;;;;;;;13.25;6.48;;;;;;;8.86;82.98;99575.78;714618;1174;114952;-80
2022/04/24 01:35:45;;;;;;;13.43;8.03;;;;;;;8.72;83.67;99571.81;714135;1174;113714;-80
2022/04/24 01:50:53;;;;;;;13.40;6.73;;;;;;;8.91;84.42;99557.06;714375;1174;114380;-80
2022/04/24 02:05:57;;;;;;;13.08;7.55;;;;;;;8.85;85.18;99555.01;714708;1174;114715;-87
2022/04/24 02:21:01;;;;;;;13.03;7.35;;;;;;;8.53;86.64;99548.34;714378;1174;114424;-86
2022/04/24 02:36:04;;;;;;;12.25;7.10;;;;;;;8.65;86.44;99539.36;714237;1173;114103;-83
2022/04/24 02:51:07;;;;;;;21.13;8.10;;;;;;;8.59;85.93;99519.84;714272;1174;113748;-85
2022/04/24 03:06:11;;;;;;;17.30;8.07;;;;;;;8.58;86.60;99533.88;713850;1174;114190;-85
2022/04/24 03:21:15;;;;;;;15.50;7.97;;;;;;;8.59;86.30;99516.38;714627;1167;114200;-86
2022/04/24 03:36:19;;;;;;;20.43;8.68;;;;;;;8.57;86.62;99513.09;714545;1174;114553;-87
2022/04/24 03:51:23;;;;;;;19.03;9.13;;;;;;;8.61;86.47;99506.63;714272;1174;115035;-86
2022/04/24 04:06:26;;;;;;;21.13;9.30;;;;;;;8.65;86.25;99516.64;714799;1174;114564;-87
2022/04/24 04:21:30;;;;;;;22.75;9.80;;;;;;;8.74;87.82;99520.20;714576;1173;113744;-86
2022/04/24 04:36:34;;;;;;;21.35;9.83;;;;;;;8.84;87.66;99525.39;714684;1173;115291;-87
2022/04/24 04:51:37;;;;;;;16.40;8.60;;;;;;;8.46;89.25;99520.13;715009;1173;114382;-86
2022/04/24 05:06:40;;;;;;;18.03;9.53;;;;;;;8.39;90.21;99510.34;714774;1174;113845;-87
2022/04/24 05:21:44;;;;;;;63.08;27.08;;;;;;;8.70;89.66;99521.45;714434;1173;114580;-84
2022/04/24 05:36:47;;;;;;;20.58;10.20;;;;;;;9.32;89.29;99534.03;714137;1174;114267;-85
2022/04/24 05:51:51;;;;;;;35.38;15.10;;;;;;;9.83;87.36;99522.15;714805;1174;113913;-75
2022/04/24 06:06:55;;;;;;;32.53;15.20;;;;;;;10.13;87.39;99524.53;713735;1174;115213;-75
2022/04/24 06:21:59;;;;;;;28.67;14.23;;;;;;;10.75;86.21;99521.08;713326;1174;115725;-74
2022/04/24 06:37:02;;;;;;;28.33;14.15;;;;;;;11.42;85.68;99515.16;714190;1174;115666;-75
2022/04/24 06:52:06;;;;;;;20.08;10.85;;;;;;;11.76;83.17;99532.65;713724;1173;114842;-80
2022/04/24 07:07:10;;;;;;;22.27;12.20;;;;;;;12.86;82.61;99526.23;713880;1173;114260;-79
2022/04/24 07:22:13;;;;;;;23.18;13.33;;;;;;;14.24;80.80;99525.69;715140;1174;114926;-78
2022/04/24 07:37:17;;;;;;;16.43;10.37;;;;;;;15.41;78.06;99521.66;715381;1174;114237;-78
2022/04/24 07:52:21;;;;;;;13.80;9.30;;;;;;;16.35;75.56;99540.33;715040;1173;116363;-74
2022/04/24 08:07:25;;;;;;;14.88;9.40;;;;;;;17.61;73.54;99545.55;715434;1174;114506;-74
2022/04/24 08:22:36;;;;;;;10.15;7.35;;;;;;;18.28;69.66;99543.05;715420;1174;114415;-74
2022/04/24 08:37:41;;;;;;;13.95;10.18;;;;;;;18.01;67.64;99544.85;717605;1174;115499;-78
2022/04/24 08:52:46;;;;;;;100.78;48.40;;;;;;;18.15;65.97;99521.01;714482;1173;114565;-80
2022/04/24 09:07:53;;;;;;;14.65;9.50;;;;;;;18.90;65.30;99492.34;714848;1174;115624;-78
2022/04/24 09:23:18;;;;;;;8.75;6.23;;;;;;;19.97;63.05;99485.68;715690;1174;115842;-78
2022/04/24 09:38:22;;;;;;;7.70;5.38;;;;;;;21.04;60.72;99459.88;715422;1174;115116;-77
2022/04/24 09:53:28;;;;;;;5.33;4.37;;;;;;;21.40;58.04;99461.63;715044;1174;113896;-78
2022/04/24 10:08:34;;;;;;;5.93;4.37;;;;;;;21.64;56.24;99455.59;715263;1173;114388;-77
2022/04/24 10:23:38;;;;;;;4.78;3.58;;;;;;;23.53;54.71;99455.41;715007;1174;114554;-76
2022/04/24 10:38:53;;;;;;;7.50;4.80;;;;;;;22.68;53.10;99457.75;715244;1174;114755;-76
2022/04/24 10:54:18;;;;;;;7.90;5.25;;;;;;;23.47;52.30;99461.72;714392;1174;114221;-77
2022/04/24 11:09:24;;;;;;;8.97;5.77;;;;;;;22.75;51.61;99469.15;715043;1173;113967;-84
2022/04/24 11:24:29;;;;;;;5.00;3.73;;;;;;;23.30;51.41;99472.38;716673;1174;114886;-73
2022/04/24 11:39:33;;;;;;;5.10;3.70;;;;;;;21.68;51.45;99476.25;714645;1174;115543;-77
2022/04/24 11:54:38;;;;;;;10.33;5.37;;;;;;;21.97;53.10;99459.61;714060;1174;114835;-74
2022/04/24 12:09:42;;;;;;;6.77;3.57;;;;;;;24.14;51.12;99459.34;714575;1173;114723;-81
2022/04/24 12:24:47;;;;;;;4.63;3.47;;;;;;;24.13;49.29;99453.19;715760;1173;115447;-80
2022/04/24 12:39:52;;;;;;;7.00;3.30;;;;;;;23.55;49.66;99455.17;715016;1174;114034;-81
2022/04/24 12:54:56;;;;;;;5.10;3.50;;;;;;;23.65;49.85;99439.29;714383;1174;114708;-80
2022/04/24 13:09:59;;;;;;;7.78;3.03;;;;;;;22.77;48.56;99434.16;716014;1174;113998;-80
2022/04/24 13:25:03;;;;;;;5.70;3.35;;;;;;;22.65;48.78;99431.51;716355;1174;114561;-80
2022/04/24 13:40:07;;;;;;;24.13;10.77;;;;;;;23.62;48.90;99398.80;714674;1174;114262;-82
2022/04/24 13:55:13;;;;;;;12.60;6.70;;;;;;;23.24;47.67;99388.55;716578;1173;115406;-80
2022/04/24 14:10:18;;;;;;;10.47;6.37;;;;;;;22.89;47.77;99388.67;715424;1173;115346;-80
2022/04/24 14:25:22;;;;;;;16.85;9.83;;;;;;;25.14;47.62;99384.23;715392;1174;115724;-80
2022/04/24 14:40:28;;;;;;;18.60;9.10;;;;;;;22.18;47.14;99370.09;714943;1174;114626;-81
2022/04/24 14:55:46;;;;;;;7.28;6.40;;;;;;;23.86;47.26;99362.78;715116;1174;114080;-80
2022/04/24 15:10:51;;;;;;;13.10;6.65;;;;;;;22.91;47.45;99359.81;715010;1174;115384;-80
2022/04/24 15:25:54;;;;;;;17.50;9.85;;;;;;;20.58;48.70;99358.89;714386;1174;114328;-80
2022/04/24 15:40:59;;;;;;;15.18;9.05;;;;;;;20.62;49.42;99360.07;714583;1174;115657;-79
2022/04/24 15:56:03;;;;;;;16.58;8.98;;;;;;;19.67;50.45;99358.56;714932;1174;115273;-80
2022/04/24 16:11:09;;;;;;;16.50;9.50;;;;;;;19.08;51.44;99344.66;714951;1174;114775;-79
2022/04/24 16:26:15;;;;;;;72.97;38.10;;;;;;;18.75;52.04;99341.14;715519;1174;114998;-78
2022/04/24 16:41:20;;;;;;;38.57;21.67;;;;;;;18.21;53.78;99329.07;715095;1174;114682;-80
2022/04/24 17:11:55;;;;;;;9.93;6.33;;;;;;;17.23;54.72;99343.79;714636;1174;115529;-81
2022/04/24 17:26:59;;;;;;;30.37;15.17;;;;;;;16.45;55.56;99364.28;715098;1172;115552;-80
2022/04/24 17:42:03;;;;;;;30.35;16.95;;;;;;;15.93;56.01;99408.73;717642;1173;114252;-81
2022/04/24 17:57:07;;;;;;;22.80;11.40;;;;;;;15.36;57.40;99410.44;715632;1173;115091;-73
2022/04/24 18:12:12;;;;;;;28.78;13.35;;;;;;;14.72;58.12;99416.40;715089;1174;115374;-73
2022/04/24 18:27:16;;;;;;;23.68;11.95;;;;;;;14.60;58.80;99429.20;715243;1174;115699;-79
2022/04/24 18:42:21;;;;;;;47.48;19.85;;;;;;;14.04;60.50;99430.43;715352;1174;114775;-79
2022/04/24 18:57:26;;;;;;;22.13;10.40;;;;;;;14.01;61.04;99422.05;715423;1172;114353;-79
2022/04/24 19:12:35;;;;;;;13.18;7.20;;;;;;;13.79;60.88;99417.45;714575;1174;115247;-75
2022/04/24 19:27:42;;;;;;;12.40;7.23;;;;;;;13.53;62.16;99411.73;715479;1174;115073;-74
2022/04/24 19:42:48;;;;;;;8.95;5.38;;;;;;;13.16;63.88;99416.69;715470;1174;115010;-74
2022/04/24 19:57:53;;;;;;;15.08;6.58;;;;;;;13.01;64.28;99432.38;717322;1173;114894;-74
2022/04/24 20:12:58;;;;;;;17.15;7.53;;;;;;;12.75;65.16;99443.20;718094;1174;114166;-83
2022/04/24 20:28:07;;;;;;;18.60;6.00;;;;;;;12.54;66.75;99438.50;718677;1173;114273;-83
2022/04/24 20:43:11;;;;;;;12.35;4.85;;;;;;;12.25;67.66;99424.09;718814;1174;114901;-83
2022/04/24 20:58:17;;;;;;;13.95;4.80;;;;;;;12.02;68.69;99427.38;718389;1174;114915;-84
2022/04/24 21:13:20;;;;;;;12.00;5.17;;;;;;;11.90;69.66;99418.98;716880;1174;114062;-83
2022/04/24 21:28:44;;;;;;;14.47;5.27;;;;;;;11.67;70.68;99437.22;715797;1173;114612;-73
2022/04/24 21:43:48;;;;;;;8.45;4.40;;;;;;;11.47;71.00;99437.52;714279;1174;114826;-79
2022/04/24 21:58:56;;;;;;;9.10;4.47;;;;;;;11.37;71.89;99436.84;714173;1174;113750;-79
2022/04/24 22:13:59;;;;;;;13.20;6.15;;;;;;;11.35;72.71;99430.95;714172;1174;113894;-79
2022/04/24 22:29:03;;;;;;;11.50;5.85;;;;;;;11.34;72.57;99421.42;714023;1174;114970;-79
2022/04/24 22:44:08;;;;;;;6.80;4.73;;;;;;;11.35;72.95;99414.34;714879;1174;114488;-79
2022/04/24 22:59:11;;;;;;;8.25;4.43;;;;;;;11.30;73.32;99412.22;715362;1174;114371;-79
2022/04/24 23:14:16;;;;;;;16.47;6.23;;;;;;;11.23;73.88;99403.33;714618;1174;114226;-79
2022/04/24 23:29:21;;;;;;;10.05;5.35;;;;;;;11.21;74.18;99408.75;714356;1174;113953;-79
2022/04/24 23:44:25;;;;;;;10.40;4.80;;;;;;;11.19;74.73;99405.48;714975;1174;114714;-79
2022/04/24 23:59:29;;;;;;;7.87;4.90;;;;;;;11.27;75.13;99400.23;713691;1174;115440;-80
